Latest Weather Observations for Cape Otway

IDV60801

Issued at 11:31 pm EST Sunday 1 May 2016 (issued every 30 minutes, with the page automatically refreshed every 10 minutes)

About weather observations | Map of weather stations | Latest weather observations for VIC | Other Formats
Station Details ID: 090015 Name: CAPE OTWAY LIGHTHOUSE Lat: -38.86 Lon: 143.51 Height: 82.0 m
Data from the previous 72 hours. | See also: Recent months at Cape Otway
Date/Time
EST
Temp
°C
App
Temp
°C
Dew
Point
Rel
Hum
%
Delta-T
°C
Wind Press
QNH
hPa
Press
MSL
hPa
Rain
since 9 am
mm
Dir
 
Spd
km/h
Gust
km/h
Spd
kts
Gust
kts
01/11:30pm 10.6 5.8 7.3 80 1.6 NW 22 37 12 20 1013.0 - 6.4
01/11:00pm 10.7 6.0 7.6 81 1.5 NNW 22 32 12 17 1013.3 - 6.4
01/10:30pm 11.0 6.1 6.9 76 2.0 NNW 22 32 12 17 1013.3 - 6.4
01/10:00pm 12.8 6.2 7.9 72 2.4 WNW 32 48 17 26 1013.2 - 6.4
01/09:30pm 13.1 5.9 5.8 61 3.5 W 33 48 18 26 1012.9 - 6.4
01/09:07pm 13.0 5.7 7.0 67 2.9 W 35 54 19 29 1012.9 - 6.4
01/09:00pm 12.7 4.3 5.4 61 3.4 W 39 54 21 29 1012.8 1012.8 6.4
01/08:43pm 13.0 5.9 6.4 64 3.2 W 33 52 18 28 1012.7 - 6.4
01/08:30pm 13.0 7.3 8.3 73 2.3 WNW 28 44 15 24 1012.6 - 6.4
01/08:29pm 13.0 7.3 8.3 73 2.3 WNW 28 50 15 27 1012.6 - 6.4
01/08:00pm 13.0 5.3 7.2 68 2.8 W 37 50 20 27 1012.4 - 6.4
01/07:35pm 13.3 5.1 6.6 64 3.2 W 39 57 21 31 1012.2 - 6.4
01/07:30pm 13.4 4.4 6.3 62 3.4 W 43 57 23 31 1012.2 - 6.4
01/07:00pm 13.1 4.8 6.2 63 3.3 W 39 56 21 30 1011.9 - 6.4
01/06:35pm 13.5 5.3 8.1 70 2.7 W 41 59 22 32 1011.9 - 6.4
01/06:30pm 12.8 4.1 5.9 63 3.3 W 41 56 22 30 1011.8 - 6.4
01/06:00pm 13.1 4.1 7.1 67 2.9 W 44 57 24 31 1011.6 1011.6 6.4
01/05:38pm 13.1 4.2 6.9 66 3.0 W 43 61 23 33 1011.3 - 6.4
01/05:30pm 13.0 4.3 7.5 69 2.7 W 43 57 23 31 1011.3 - 6.4
01/05:19pm 13.2 4.2 6.5 64 3.2 W 43 61 23 33 1011.2 - 6.4
01/05:00pm 13.5 4.2 7.5 67 3.0 W 46 57 25 31 1011.0 - 6.4
01/04:33pm 13.0 5.1 7.7 70 2.6 W 39 57 21 31 1010.8 - 6.4
01/04:30pm 13.1 4.8 7.8 70 2.6 W 41 56 22 30 1010.8 - 6.4
01/04:05pm 13.2 4.5 7.6 69 2.8 WSW 43 61 23 33 1010.6 - 6.4
01/04:00pm 13.7 3.9 5.3 57 3.9 W 46 63 25 34 1010.4 - 6.4
01/03:31pm 13.6 4.6 7.2 65 3.1 W 44 63 24 34 1009.8 - 6.4
01/03:30pm 13.6 4.3 7.6 67 3.0 W 46 63 25 34 1009.8 - 6.4
01/03:00pm 13.9 4.7 7.9 67 3.0 W 46 65 25 35 1009.1 1009.1 6.4
01/02:30pm 13.7 4.3 7.2 65 3.2 W 46 67 25 36 1008.5 - 6.2
01/02:01pm 13.6 4.0 6.2 61 3.5 W 46 67 25 36 1008.2 - 6.2
01/02:00pm 13.8 4.4 7.1 64 3.3 W 46 63 25 34 1008.2 - 6.2
01/01:30pm 13.1 3.0 7.5 69 2.7 WSW 50 72 27 39 1007.9 - 6.2
01/01:00pm 12.8 2.9 8.3 74 2.2 W 50 72 27 39 1007.4 - 6.2
01/12:30pm 12.2 1.7 7.3 72 2.4 WSW 52 82 28 44 1006.9 - 6.0
01/12:03pm 13.8 4.6 8.0 68 2.9 W 46 65 25 35 1006.8 - 6.0
01/12:00pm 13.8 3.8 7.8 67 3.0 W 50 65 27 35 1006.8 1006.8 6.0
01/11:30am 13.4 2.5 7.4 67 2.9 W 54 72 29 39 1006.6 - 5.8
01/11:24am 12.9 1.3 6.7 66 3.0 W 57 72 31 39 1006.4 - 5.8
01/11:09am 12.7 5.4 10.1 84 1.3 W 39 57 21 31 1006.3 - 5.8
01/11:08am 12.3 4.2 9.9 85 1.2 W 43 57 23 31 1006.3 - 5.8
01/11:05am 11.5 6.0 9.2 86 1.2 WNW 28 54 15 29 1006.3 - 5.8
01/11:00am 10.6 4.9 8.4 86 1.1 WNW 28 39 15 21 1006.3 - 5.8
01/10:46am 10.7 3.8 9.0 89 0.8 W 35 54 19 29 1006.5 - 5.8
01/10:30am 10.8 4.9 9.2 90 0.8 NW 30 41 16 22 1005.9 - 4.2
01/10:20am 11.0 4.6 9.4 90 0.8 WNW 33 46 18 25 1006.0 - 4.2
01/10:00am 10.9 2.4 9.2 89 0.9 W 44 69 24 37 1005.8 - 3.4
01/09:50am 11.3 3.8 9.4 88 1.0 WNW 39 65 21 35 1005.2 - 2.4
01/09:45am 11.4 4.3 9.5 88 1.0 WNW 37 50 20 27 1005.0 - 1.8
01/09:30am 10.8 2.2 8.2 84 1.3 W 43 63 23 34 1004.6 - 1.4
01/09:14am 12.9 5.6 10.1 83 1.4 W 39 57 21 31 1004.0 - 0.4
01/09:00am 12.6 5.6 10.0 84 1.3 W 37 52 20 28 1004.0 1003.9 22.4
01/08:30am 12.1 4.5 9.1 82 1.5 W 39 57 21 31 1003.6 - 21.8
01/08:00am 12.2 4.4 9.8 85 1.2 WSW 41 63 22 34 1002.4 - 21.8
01/07:41am 11.9 4.7 10.6 92 0.7 WSW 39 61 21 33 1001.9 - 21.6
01/07:30am 11.6 5.4 10.2 91 0.7 WNW 33 52 18 28 1002.1 - 21.2
01/07:00am 11.8 5.7 10.5 92 0.7 WNW 33 52 18 28 1001.3 - 19.2
01/06:35am 12.1 5.6 10.5 90 0.8 WNW 35 54 19 29 1001.1 - 16.8
01/06:30am 12.4 5.2 10.6 89 0.9 WNW 39 54 21 29 1001.0 - 16.4
01/06:00am 12.7 4.9 9.9 83 1.4 WNW 41 63 22 34 1000.4 1000.4 15.0
01/05:30am 13.9 6.5 9.7 76 2.2 WNW 39 59 21 32 999.6 - 15.0
01/05:00am 14.6 7.0 10.6 77 2.1 WNW 41 61 22 33 999.1 - 15.0
01/04:56am 14.5 7.5 11.3 81 1.7 WNW 39 61 21 33 999.0 - 15.0
01/04:30am 14.9 9.1 11.5 80 1.8 NNW 33 54 18 29 999.0 - 15.0
01/04:05am 14.7 9.9 11.5 81 1.7 NNW 28 46 15 25 998.9 - 15.0
01/04:00am 14.8 10.5 11.9 83 1.6 NNW 26 43 14 23 998.9 - 15.0
01/03:30am 15.0 12.1 12.9 87 1.2 N 20 33 11 18 999.4 - 15.0
01/03:00am 15.2 11.3 13.2 88 1.1 N 26 43 14 23 1000.7 1000.7 14.8
01/02:34am 15.4 11.2 13.6 89 1.0 N 28 46 15 25 1001.6 - 13.8
01/02:30am 15.3 11.5 13.7 90 0.9 N 26 41 14 22 1001.6 - 13.8
01/02:00am 14.6 11.7 13.0 90 0.9 N 20 32 11 17 1001.9 - 12.2
01/01:31am 14.3 9.3 12.2 87 1.1 NW 30 63 16 34 1002.8 - 8.4
01/01:30am 14.3 9.3 12.2 87 1.1 NW 30 78 16 42 1002.9 - 7.8
01/01:26am 14.4 8.8 11.6 83 1.5 NW 32 80 17 43 1002.9 - 5.4
01/01:21am 15.2 4.7 11.0 76 2.2 WNW 57 80 31 43 1002.6 - 1.8
01/01:20am 18.4 13.1 12.6 69 3.2 NW 32 80 17 43 1002.7 - 0.6
01/01:18am 20.2 15.7 12.7 62 4.2 NNW 28 50 15 27 1001.9 - 0.0
01/01:16am 20.3 15.4 12.5 61 4.4 NNW 30 50 16 27 1001.5 - 0.0
01/01:00am 20.5 13.9 12.5 60 4.5 N 39 61 21 33 1000.1 - 0.0
01/12:31am 20.5 16.1 13.0 62 4.3 N 28 50 15 27 1000.9 - 0.0
01/12:30am 20.4 16.4 12.9 62 4.3 N 26 50 14 27 1000.9 - 0.0
01/12:06am 20.3 15.9 13.0 63 4.2 N 28 48 15 26 1001.2 - 0.0
01/12:00am 20.1 16.1 13.1 64 4.0 NNE 26 43 14 23 1001.5 1001.5 0.0
 
Date/Time
EST
Temp
°C
App
Temp
°C
Dew
Point
Rel
Hum
%
Delta-T
°C
Wind Press
QNH
hPa
Press
MSL
hPa
Rain
since 9 am
mm
Dir
 
Spd
km/h
Gust
km/h
Spd
kts
Gust
kts
30/11:54pm 20.2 15.9 13.2 64 4.0 NNE 28 46 15 25 1001.5 - 0.0
30/11:30pm 19.9 16.3 13.1 65 3.9 NNE 24 41 13 22 1002.4 - 0.0
30/11:00pm 20.2 16.4 13.6 66 3.8 N 26 43 14 23 1003.7 - 0.0
30/10:30pm 19.7 16.0 13.9 69 3.3 N 26 41 14 22 1004.8 - 0.0
30/10:00pm 20.0 17.6 14.4 70 3.3 N 20 33 11 18 1005.8 - 0.0
30/09:30pm 19.7 16.1 14.3 71 3.1 N 26 44 14 24 1006.1 - 0.0
30/09:00pm 19.6 16.8 14.2 71 3.1 N 22 33 12 18 1006.7 1006.6 0.0
30/08:30pm 19.5 16.9 13.7 69 3.3 N 20 32 11 17 1007.0 - 0.0
30/08:00pm 19.4 16.5 12.4 64 3.9 N 19 28 10 15 1007.3 - 0.0
30/07:30pm 16.8 14.7 11.1 69 3.1 NNE 13 17 7 9 1007.7 - 0.0
30/07:00pm 17.6 15.2 11.4 67 3.4 NE 15 20 8 11 1007.7 - 0.0
30/06:30pm 18.4 15.5 11.0 62 4.0 NE 17 20 9 11 1007.6 - 0.0
30/06:00pm 17.9 14.9 11.9 68 3.3 NE 19 22 10 12 1007.6 1007.5 0.0
30/05:30pm 17.4 15.4 11.4 68 3.3 ENE 13 17 7 9 1007.8 - 0.0
30/05:00pm 18.7 18.5 11.8 64 3.8 SE 4 9 2 5 1008.0 - 0.0
30/04:30pm 20.0 20.7 12.3 61 4.3 CALM 0 6 0 3 1008.1 - 0.0
30/04:00pm 18.9 18.5 12.9 68 3.4 SSW 7 9 4 5 1008.2 - 0.0
30/03:30pm 19.0 17.5 13.2 69 3.3 W 13 19 7 10 1008.4 - 0.0
30/03:00pm 18.9 17.4 13.1 69 3.3 WNW 13 17 7 9 1008.7 1008.6 0.0
30/02:30pm 19.2 17.6 13.8 71 3.1 W 15 24 8 13 1008.9 - 0.0
30/02:00pm 19.3 18.3 13.5 69 3.3 W 11 24 6 13 1009.1 - 0.0
30/01:30pm 19.6 16.7 12.8 65 3.8 W 20 35 11 19 1009.3 - 0.0
30/01:00pm 22.7 19.1 12.0 50 6.1 NW 22 37 12 20 1009.5 - 0.0
30/12:30pm 22.4 19.1 12.9 55 5.5 NW 22 35 12 19 1009.8 - 0.0
30/12:00pm 21.8 18.6 13.2 58 5.0 NW 22 33 12 18 1010.3 1010.2 0.0
30/11:30am 20.9 18.4 13.4 62 4.3 NNW 19 32 10 17 1010.8 - 0.0
30/11:00am 20.8 18.1 14.7 68 3.6 NNW 22 37 12 20 1011.3 - 0.0
30/10:30am 20.3 17.2 14.4 69 3.4 N 24 37 13 20 1011.6 - 0.0
30/10:00am 19.9 16.8 14.5 71 3.2 N 24 37 13 20 1011.7 - 0.0
30/09:30am 19.3 16.0 14.1 72 3.0 N 24 43 13 23 1012.0 - 0.0
30/09:00am 18.9 16.6 14.2 74 2.7 N 19 39 10 21 1012.1 1012.0 4.4
30/08:30am 18.2 15.6 13.9 76 2.5 N 20 35 11 19 1012.2 - 4.4
30/08:00am 17.1 14.6 13.6 80 2.0 N 19 28 10 15 1011.9 - 4.4
30/07:30am 16.4 13.6 13.1 81 1.8 N 20 30 11 16 1011.7 - 4.4
30/07:00am 16.5 13.8 13.0 80 2.0 N 19 32 10 17 1011.5 - 4.4
30/06:30am 16.5 13.8 13.4 82 1.7 N 20 30 11 16 1011.3 - 4.4
30/06:00am 16.6 13.5 13.5 82 1.8 N 22 39 12 21 1011.2 1011.1 4.4
30/05:30am 16.6 13.2 13.7 83 1.6 N 24 35 13 19 1011.2 - 4.4
30/05:00am 16.7 13.7 13.8 83 1.6 N 22 33 12 18 1011.2 - 4.4
30/04:30am 16.6 13.2 13.7 83 1.6 N 24 35 13 19 1011.2 - 4.4
30/04:00am 16.4 12.6 13.5 83 1.6 N 26 35 14 19 1011.1 - 4.4
30/03:30am 16.1 13.4 13.4 84 1.5 N 20 32 11 17 1011.2 - 4.4
30/03:00am 16.0 12.8 13.1 83 1.6 N 22 39 12 21 1011.5 1011.4 4.4
30/02:30am 16.1 13.3 13.2 83 1.6 N 20 28 11 15 1011.7 - 4.4
30/02:00am 16.0 13.2 13.3 84 1.5 N 20 28 11 15 1011.8 - 4.4
30/01:30am 15.8 12.6 13.1 84 1.5 N 22 32 12 17 1011.8 - 4.4
30/01:00am 15.9 12.6 12.8 82 1.7 N 22 32 12 17 1012.0 - 4.4
30/12:30am 15.7 13.2 12.3 80 1.9 N 17 24 9 13 1012.2 - 4.4
30/12:00am 15.6 13.0 12.0 79 2.0 NNW 17 24 9 13 1012.4 1012.3 4.4
 
Date/Time
EST
Temp
°C
App
Temp
°C
Dew
Point
Rel
Hum
%
Delta-T
°C
Wind Press
QNH
hPa
Press
MSL
hPa
Rain
since 9 am
mm
Dir
 
Spd
km/h
Gust
km/h
Spd
kts
Gust
kts
29/11:30pm 15.6 12.9 12.9 84 1.5 NNW 19 24 10 13 1012.8 - 4.4
29/11:00pm 15.5 13.3 13.3 87 1.2 NNW 17 22 9 12 1012.9 - 4.2
29/10:30pm 15.7 13.0 13.5 87 1.2 N 20 30 11 16 1013.1 - 4.2
29/10:00pm 15.8 12.7 13.5 86 1.3 N 22 33 12 18 1012.8 - 4.2
29/09:30pm 15.6 12.5 13.3 86 1.3 N 22 30 12 16 1012.7 - 4.2
29/09:00pm 15.7 12.6 13.4 86 1.3 N 22 32 12 17 1012.6 1012.5 4.2
29/08:30pm 15.8 13.1 13.5 86 1.3 N 20 32 11 17 1012.4 - 4.2
29/08:00pm 15.8 13.1 13.6 87 1.2 N 20 28 11 15 1012.3 - 4.2
29/07:30pm 15.8 13.7 13.6 87 1.2 N 17 28 9 15 1012.4 - 4.2
29/07:00pm 15.7 14.0 13.7 88 1.1 N 15 22 8 12 1012.5 - 4.2
29/06:30pm 15.6 14.7 13.8 89 1.0 NNW 11 19 6 10 1012.4 - 4.2
29/06:00pm 15.8 13.4 13.8 88 1.1 NNW 19 26 10 14 1012.0 1011.9 4.2
29/05:30pm 15.7 13.2 13.4 86 1.3 NNW 19 32 10 17 1011.8 - 4.2
29/05:00pm 15.7 13.6 13.7 88 1.1 NW 17 26 9 14 1011.6 - 4.2
29/04:30pm 15.6 13.1 13.6 88 1.1 NW 19 30 10 16 1011.5 - 4.2
29/04:00pm 15.3 12.2 13.5 89 1.0 NNW 22 41 12 22 1011.4 - 4.2
29/03:30pm 15.6 13.7 14.1 91 0.9 NNW 17 26 9 14 1011.2 - 3.8
29/03:00pm 15.8 13.6 14.3 91 0.9 NNW 19 28 10 15 1011.1 1011.0 3.4
29/02:30pm 16.4 15.3 14.4 88 1.1 W 13 24 7 13 1011.2 - 1.0
29/02:00pm 16.7 15.1 13.8 83 1.6 N 15 26 8 14 1010.8 - 0.4
29/01:30pm 16.9 14.2 13.6 81 1.9 N 20 32 11 17 1010.8 - 0.2
29/01:00pm 17.0 14.3 13.5 80 2.0 N 20 35 11 19 1011.1 - 0.2
29/12:30pm 16.9 14.8 13.6 81 1.9 N 17 22 9 12 1011.6 - 0.2
29/12:00pm 16.9 14.1 13.2 79 2.1 N 20 32 11 17 1012.1 1012.0 0.0
29/11:30am 16.9 14.7 13.2 79 2.1 NNW 17 28 9 15 1012.6 - 0.0
29/11:00am 17.3 14.6 13.0 76 2.4 NNW 19 26 10 14 1012.6 - 0.0
29/10:30am 18.1 15.1 11.9 67 3.4 NNW 19 33 10 18 1012.8 - 0.0
29/10:00am 18.3 15.3 11.8 66 3.6 NNW 19 32 10 17 1012.7 - 0.0
29/09:30am 17.5 14.5 12.0 70 3.0 N 19 28 10 15 1012.7 - 0.0
29/09:00am 16.6 14.2 12.6 77 2.2 N 17 22 9 12 1012.7 1012.6 2.0
29/08:30am 16.2 13.9 12.9 81 1.8 N 17 22 9 12 1012.8 - 2.0
29/08:00am 15.7 12.8 13.0 84 1.5 N 20 32 11 17 1012.9 - 2.0
29/07:30am 15.9 12.3 13.2 84 1.5 N 24 35 13 19 1013.6 - 1.8
29/07:00am 16.2 14.5 13.7 85 1.4 NW 15 22 8 12 1013.4 - 1.4
29/06:30am 18.1 13.7 12.8 71 3.0 W 28 48 15 26 1013.1 - 0.8
29/06:29am 18.3 13.8 12.7 70 3.1 W 28 48 15 26 1013.2 - 0.8
29/06:26am 19.0 15.1 12.0 64 3.9 W 24 35 13 19 1013.1 - 0.8
29/06:00am 19.9 16.0 10.9 56 4.9 N 22 37 12 20 1011.1 1011.0 0.8
29/05:30am 18.6 14.5 11.4 63 3.9 N 24 43 13 23 1011.5 - 0.8
29/05:00am 16.3 15.5 12.8 80 1.9 NW 9 17 5 9 1012.5 - 0.8
29/04:30am 15.5 13.4 13.7 89 1.0 NE 17 20 9 11 1012.4 - 0.8
29/04:00am 15.6 13.3 14.1 91 0.9 NE 19 24 10 13 1013.4 - 0.8
29/03:30am 15.1 14.6 13.8 92 0.7 N 9 11 5 6 1013.4 - 0.6
29/03:00am 15.5 16.5 14.2 92 0.7 W 2 6 1 3 1014.3 1014.2 0.6
29/02:30am 15.6 15.3 14.5 93 0.6 N 9 13 5 7 1014.7 - 0.6
29/02:00am 15.6 15.8 14.6 94 0.6 N 7 13 4 7 1014.5 - 0.4
29/01:30am 15.9 14.6 14.9 94 0.6 NW 15 22 8 12 1015.3 - 0.2
29/01:00am 15.6 14.2 14.6 94 0.6 ENE 15 19 8 10 1014.2 - 0.2
29/12:30am 15.9 15.0 14.9 94 0.6 ENE 13 17 7 9 1014.9 - 0.2
29/12:00am 15.9 15.0 14.8 93 0.6 ENE 13 19 7 10 1015.3 1015.3 0.2

Other Formats:

Comma delimited format used in spreadsheet applications
http://www.bom.gov.au/fwo/IDV60801/IDV60801.94842.axf

JavaScript Object Notation format (JSON) in row-major order
http://www.bom.gov.au/fwo/IDV60801/IDV60801.94842.json